sensor_id;sensor_type;location;lat;lon;timestamp;temperature;humidity
56861;DHT22;42744;51.094;3.490;2024-01-15T00:00:50;2.30;99.90
56861;DHT22;42744;51.094;3.490;2024-01-15T00:03:17;2.30;99.90
56861;DHT22;42744;51.094;3.490;2024-01-15T00:05:44;2.30;99.90
56861;DHT22;42744;51.094;3.490;2024-01-15T00:08:10;2.30;99.90
56861;DHT22;42744;51.094;3.490;2024-01-15T00:10:36;2.40;99.90
56861;DHT22;42744;51.094;3.490;2024-01-15T00:13:03;2.40;99.90
56861;DHT22;42744;51.094;3.490;2024-01-15T00:15:29;2.30;99.90
56861;DHT22;42744;51.094;3.490;2024-01-15T00:17:56;2.30;99.90
56861;DHT22;42744;51.094;3.490;2024-01-15T00:20:22;2.30;99.90
56861;DHT22;42744;51.094;3.490;2024-01-15T00:22:48;2.40;99.90
56861;DHT22;42744;51.094;3.490;2024-01-15T00:25:15;2.40;99.90
56861;DHT22;42744;51.094;3.490;2024-01-15T00:27:41;2.30;99.90
56861;DHT22;42744;51.094;3.490;2024-01-15T00:30:07;2.30;99.90
56861;DHT22;42744;51.094;3.490;2024-01-15T00:32:34;2.30;99.90
56861;DHT22;42744;51.094;3.490;2024-01-15T00:35:00;2.30;99.90
56861;DHT22;42744;51.094;3.490;2024-01-15T00:37:30;2.20;99.90
56861;DHT22;42744;51.094;3.490;2024-01-15T00:39:56;2.20;99.90
56861;DHT22;42744;51.094;3.490;2024-01-15T00:42:22;2.10;99.90
56861;DHT22;42744;51.094;3.490;2024-01-15T00:44:48;2.10;99.90
56861;DHT22;42744;51.094;3.490;2024-01-15T00:47:15;2.10;99.90
56861;DHT22;42744;51.094;3.490;2024-01-15T00:49:43;2.00;99.90
56861;DHT22;42744;51.094;3.490;2024-01-15T00:52:10;2.00;99.90
56861;DHT22;42744;51.094;3.490;2024-01-15T00:54:36;2.00;99.90
56861;DHT22;42744;51.094;3.490;2024-01-15T00:57:03;2.00;99.90
56861;DHT22;42744;51.094;3.490;2024-01-15T00:59:30;2.00;99.90
56861;DHT22;42744;51.094;3.490;2024-01-15T01:01:56;2.00;99.90
56861;DHT22;42744;51.094;3.490;2024-01-15T01:04:22;2.00;99.90
56861;DHT22;42744;51.094;3.490;2024-01-15T01:06:49;2.00;99.90
56861;DHT22;42744;51.094;3.490;2024-01-15T01:09:15;2.00;99.90
56861;DHT22;42744;51.094;3.490;2024-01-15T01:11:42;1.90;99.90
56861;DHT22;42744;51.094;3.490;2024-01-15T01:14:08;1.90;99.90
56861;DHT22;42744;51.094;3.490;2024-01-15T01:16:34;1.90;99.90
56861;DHT22;42744;51.094;3.490;2024-01-15T01:19:05;1.90;99.90
56861;DHT22;42744;51.094;3.490;2024-01-15T01:21:33;1.90;99.90
56861;DHT22;42744;51.094;3.490;2024-01-15T01:24:03;1.90;99.90
56861;DHT22;42744;51.094;3.490;2024-01-15T01:26:30;1.90;99.90
56861;DHT22;42744;51.094;3.490;2024-01-15T01:28:57;1.90;99.90
56861;DHT22;42744;51.094;3.490;2024-01-15T01:31:24;1.90;99.90
56861;DHT22;42744;51.094;3.490;2024-01-15T01:33:50;2.00;99.90
56861;DHT22;42744;51.094;3.490;2024-01-15T01:36:16;1.90;99.90
56861;DHT22;42744;51.094;3.490;2024-01-15T01:38:43;1.90;99.90
56861;DHT22;42744;51.094;3.490;2024-01-15T01:41:09;2.00;99.90
56861;DHT22;42744;51.094;3.490;2024-01-15T01:43:36;2.00;99.90
56861;DHT22;42744;51.094;3.490;2024-01-15T01:46:03;2.00;99.90
56861;DHT22;42744;51.094;3.490;2024-01-15T01:48:30;2.00;99.90
56861;DHT22;42744;51.094;3.490;2024-01-15T01:51:02;2.00;99.90
56861;DHT22;42744;51.094;3.490;2024-01-15T01:53:29;2.10;99.90
56861;DHT22;42744;51.094;3.490;2024-01-15T01:55:57;2.10;99.90
56861;DHT22;42744;51.094;3.490;2024-01-15T01:58:24;2.10;99.90
56861;DHT22;42744;51.094;3.490;2024-01-15T02:00:52;2.10;99.90
56861;DHT22;42744;51.094;3.490;2024-01-15T02:03:19;2.10;99.90
56861;DHT22;42744;51.094;3.490;2024-01-15T02:05:48;2.10;99.90
56861;DHT22;42744;51.094;3.490;2024-01-15T02:08:15;2.10;99.90
56861;DHT22;42744;51.094;3.490;2024-01-15T02:10:44;2.10;99.90
56861;DHT22;42744;51.094;3.490;2024-01-15T02:13:11;2.00;99.90
56861;DHT22;42744;51.094;3.490;2024-01-15T02:15:37;2.10;99.90
56861;DHT22;42744;51.094;3.490;2024-01-15T02:18:07;2.10;99.90
56861;DHT22;42744;51.094;3.490;2024-01-15T02:20:34;2.10;99.90
56861;DHT22;42744;51.094;3.490;2024-01-15T02:23:14;2.10;99.90
56861;DHT22;42744;51.094;3.490;2024-01-15T02:25:43;2.10;99.90
56861;DHT22;42744;51.094;3.490;2024-01-15T02:28:15;2.10;99.90
56861;DHT22;42744;51.094;3.490;2024-01-15T02:30:43;2.10;99.90
56861;DHT22;42744;51.094;3.490;2024-01-15T02:33:10;2.10;99.90
56861;DHT22;42744;51.094;3.490;2024-01-15T02:35:37;2.10;99.90
56861;DHT22;42744;51.094;3.490;2024-01-15T02:38:04;2.10;99.90
56861;DHT22;42744;51.094;3.490;2024-01-15T02:40:31;2.10;99.90
56861;DHT22;42744;51.094;3.490;2024-01-15T02:42:57;2.10;99.90
56861;DHT22;42744;51.094;3.490;2024-01-15T02:45:24;2.10;99.90
56861;DHT22;42744;51.094;3.490;2024-01-15T02:47:50;2.20;99.90
56861;DHT22;42744;51.094;3.490;2024-01-15T02:50:17;2.10;99.90
56861;DHT22;42744;51.094;3.490;2024-01-15T02:52:43;2.10;99.90
56861;DHT22;42744;51.094;3.490;2024-01-15T02:55:10;2.20;99.90
56861;DHT22;42744;51.094;3.490;2024-01-15T02:57:36;2.20;99.90
56861;DHT22;42744;51.094;3.490;2024-01-15T03:00:03;2.20;99.90
56861;DHT22;42744;51.094;3.490;2024-01-15T03:02:29;2.20;99.90
56861;DHT22;42744;51.094;3.490;2024-01-15T03:04:57;2.30;99.90
56861;DHT22;42744;51.094;3.490;2024-01-15T03:07:24;2.30;99.90
56861;DHT22;42744;51.094;3.490;2024-01-15T03:09:50;2.30;99.90
56861;DHT22;42744;51.094;3.490;2024-01-15T03:12:16;2.30;99.90
56861;DHT22;42744;51.094;3.490;2024-01-15T03:14:44;2.30;99.90
56861;DHT22;42744;51.094;3.490;2024-01-15T03:17:10;2.30;99.90
56861;DHT22;42744;51.094;3.490;2024-01-15T03:19:38;2.30;99.90
56861;DHT22;42744;51.094;3.490;2024-01-15T03:22:04;2.30;99.90
56861;DHT22;42744;51.094;3.490;2024-01-15T03:24:31;2.30;99.90
56861;DHT22;42744;51.094;3.490;2024-01-15T03:26:58;2.30;99.90
56861;DHT22;42744;51.094;3.490;2024-01-15T03:29:26;2.30;99.90
56861;DHT22;42744;51.094;3.490;2024-01-15T03:31:52;2.30;99.90
56861;DHT22;42744;51.094;3.490;2024-01-15T03:34:19;2.30;99.90
56861;DHT22;42744;51.094;3.490;2024-01-15T03:36:49;2.30;99.90
56861;DHT22;42744;51.094;3.490;2024-01-15T03:39:15;2.30;99.90
56861;DHT22;42744;51.094;3.490;2024-01-15T03:41:41;2.30;99.90
56861;DHT22;42744;51.094;3.490;2024-01-15T03:44:07;2.30;99.90
56861;DHT22;42744;51.094;3.490;2024-01-15T03:46:34;2.30;99.90
56861;DHT22;42744;51.094;3.490;2024-01-15T03:49:00;2.30;99.90
56861;DHT22;42744;51.094;3.490;2024-01-15T03:51:29;2.30;99.90
56861;DHT22;42744;51.094;3.490;2024-01-15T03:53:55;2.30;99.90
56861;DHT22;42744;51.094;3.490;2024-01-15T03:56:22;2.30;99.90
56861;DHT22;42744;51.094;3.490;2024-01-15T03:58:48;2.30;99.90
56861;DHT22;42744;51.094;3.490;2024-01-15T04:01:15;2.30;99.90
56861;DHT22;42744;51.094;3.490;2024-01-15T04:03:41;2.30;99.90
56861;DHT22;42744;51.094;3.490;2024-01-15T04:06:07;2.30;99.90
56861;DHT22;42744;51.094;3.490;2024-01-15T04:08:34;2.30;99.90
56861;DHT22;42744;51.094;3.490;2024-01-15T04:11:00;2.30;99.90
56861;DHT22;42744;51.094;3.490;2024-01-15T04:13:27;2.30;99.90
56861;DHT22;42744;51.094;3.490;2024-01-15T04:15:53;2.30;99.90
56861;DHT22;42744;51.094;3.490;2024-01-15T04:18:20;2.30;99.90
56861;DHT22;42744;51.094;3.490;2024-01-15T04:20:49;2.30;99.90
56861;DHT22;42744;51.094;3.490;2024-01-15T04:23:15;2.30;99.90
56861;DHT22;42744;51.094;3.490;2024-01-15T04:25:42;2.30;99.90
56861;DHT22;42744;51.094;3.490;2024-01-15T04:28:11;2.30;99.90
56861;DHT22;42744;51.094;3.490;2024-01-15T04:30:38;2.30;99.90
56861;DHT22;42744;51.094;3.490;2024-01-15T04:33:04;2.30;99.90
56861;DHT22;42744;51.094;3.490;2024-01-15T04:35:31;2.20;99.90
56861;DHT22;42744;51.094;3.490;2024-01-15T04:37:57;2.20;99.90
56861;DHT22;42744;51.094;3.490;2024-01-15T04:40:23;2.20;99.90
56861;DHT22;42744;51.094;3.490;2024-01-15T04:42:55;2.20;99.90
56861;DHT22;42744;51.094;3.490;2024-01-15T04:45:21;2.20;99.90
56861;DHT22;42744;51.094;3.490;2024-01-15T04:47:55;2.20;99.90
56861;DHT22;42744;51.094;3.490;2024-01-15T04:50:24;2.20;99.90
56861;DHT22;42744;51.094;3.490;2024-01-15T04:52:50;2.20;99.90
56861;DHT22;42744;51.094;3.490;2024-01-15T04:55:17;2.10;99.90
56861;DHT22;42744;51.094;3.490;2024-01-15T04:57:43;2.10;99.90
56861;DHT22;42744;51.094;3.490;2024-01-15T05:00:10;2.10;99.90
56861;DHT22;42744;51.094;3.490;2024-01-15T05:02:37;2.10;99.90
56861;DHT22;42744;51.094;3.490;2024-01-15T05:05:03;2.10;99.90
56861;DHT22;42744;51.094;3.490;2024-01-15T05:07:29;2.10;99.90
56861;DHT22;42744;51.094;3.490;2024-01-15T05:09:56;2.10;99.90
56861;DHT22;42744;51.094;3.490;2024-01-15T05:12:22;2.10;99.90
56861;DHT22;42744;51.094;3.490;2024-01-15T05:14:48;2.20;99.90
56861;DHT22;42744;51.094;3.490;2024-01-15T05:17:15;2.10;99.90
56861;DHT22;42744;51.094;3.490;2024-01-15T05:19:42;2.10;99.90
56861;DHT22;42744;51.094;3.490;2024-01-15T05:22:08;2.10;99.90
56861;DHT22;42744;51.094;3.490;2024-01-15T05:24:34;2.00;99.90
56861;DHT22;42744;51.094;3.490;2024-01-15T05:27:01;2.00;99.90
56861;DHT22;42744;51.094;3.490;2024-01-15T05:29:27;2.00;99.90
56861;DHT22;42744;51.094;3.490;2024-01-15T05:31:54;1.90;99.90
56861;DHT22;42744;51.094;3.490;2024-01-15T05:34:20;1.90;99.90
56861;DHT22;42744;51.094;3.490;2024-01-15T05:36:47;1.80;99.90
56861;DHT22;42744;51.094;3.490;2024-01-15T05:39:14;1.80;99.90
56861;DHT22;42744;51.094;3.490;2024-01-15T05:41:40;1.80;99.90
56861;DHT22;42744;51.094;3.490;2024-01-15T05:44:06;1.80;99.90
56861;DHT22;42744;51.094;3.490;2024-01-15T05:46:33;1.70;99.90
56861;DHT22;42744;51.094;3.490;2024-01-15T05:48:59;1.70;99.90
56861;DHT22;42744;51.094;3.490;2024-01-15T05:51:25;1.70;99.90
56861;DHT22;42744;51.094;3.490;2024-01-15T05:53:52;1.70;99.90
56861;DHT22;42744;51.094;3.490;2024-01-15T05:56:18;1.60;99.90
56861;DHT22;42744;51.094;3.490;2024-01-15T05:58:48;1.60;99.90
56861;DHT22;42744;51.094;3.490;2024-01-15T06:01:14;1.50;99.90
56861;DHT22;42744;51.094;3.490;2024-01-15T06:03:41;1.50;99.90
56861;DHT22;42744;51.094;3.490;2024-01-15T06:06:08;1.50;99.90
56861;DHT22;42744;51.094;3.490;2024-01-15T06:08:35;1.50;99.90
56861;DHT22;42744;51.094;3.490;2024-01-15T06:11:01;1.40;99.90
56861;DHT22;42744;51.094;3.490;2024-01-15T06:13:28;1.40;99.90
56861;DHT22;42744;51.094;3.490;2024-01-15T06:15:54;1.50;99.90
56861;DHT22;42744;51.094;3.490;2024-01-15T06:18:21;1.40;99.90
56861;DHT22;42744;51.094;3.490;2024-01-15T06:20:50;1.40;99.90
56861;DHT22;42744;51.094;3.490;2024-01-15T06:23:16;1.40;99.90
56861;DHT22;42744;51.094;3.490;2024-01-15T06:25:43;1.40;99.90
56861;DHT22;42744;51.094;3.490;2024-01-15T06:28:09;1.50;99.90
56861;DHT22;42744;51.094;3.490;2024-01-15T06:30:35;1.50;99.90
56861;DHT22;42744;51.094;3.490;2024-01-15T06:33:02;1.50;99.90
56861;DHT22;42744;51.094;3.490;2024-01-15T06:35:28;1.50;99.90
56861;DHT22;42744;51.094;3.490;2024-01-15T06:37:54;1.50;99.90
56861;DHT22;42744;51.094;3.490;2024-01-15T06:40:20;1.50;99.90
56861;DHT22;42744;51.094;3.490;2024-01-15T06:42:47;1.50;99.90
56861;DHT22;42744;51.094;3.490;2024-01-15T06:45:13;1.50;99.90
56861;DHT22;42744;51.094;3.490;2024-01-15T06:47:39;1.50;99.90
56861;DHT22;42744;51.094;3.490;2024-01-15T06:50:06;1.50;99.90
56861;DHT22;42744;51.094;3.490;2024-01-15T06:52:33;1.50;99.90
56861;DHT22;42744;51.094;3.490;2024-01-15T06:54:59;1.40;99.90
56861;DHT22;42744;51.094;3.490;2024-01-15T06:57:26;1.40;99.90
56861;DHT22;42744;51.094;3.490;2024-01-15T06:59:52;1.50;99.90
56861;DHT22;42744;51.094;3.490;2024-01-15T07:02:18;1.40;99.90
56861;DHT22;42744;51.094;3.490;2024-01-15T07:04:44;1.40;99.90
56861;DHT22;42744;51.094;3.490;2024-01-15T07:07:11;1.40;99.90
56861;DHT22;42744;51.094;3.490;2024-01-15T07:09:37;1.40;99.90
56861;DHT22;42744;51.094;3.490;2024-01-15T07:12:04;1.30;99.90
56861;DHT22;42744;51.094;3.490;2024-01-15T07:14:30;1.30;99.90
56861;DHT22;42744;51.094;3.490;2024-01-15T07:16:56;1.30;99.90
56861;DHT22;42744;51.094;3.490;2024-01-15T07:19:23;1.20;99.90
56861;DHT22;42744;51.094;3.490;2024-01-15T07:21:49;1.30;99.90
56861;DHT22;42744;51.094;3.490;2024-01-15T07:24:15;1.20;99.90
56861;DHT22;42744;51.094;3.490;2024-01-15T07:26:41;1.20;99.90
56861;DHT22;42744;51.094;3.490;2024-01-15T07:29:08;1.20;99.90
56861;DHT22;42744;51.094;3.490;2024-01-15T07:31:34;1.20;99.90
56861;DHT22;42744;51.094;3.490;2024-01-15T07:34:01;1.20;99.90
56861;DHT22;42744;51.094;3.490;2024-01-15T07:36:27;1.20;99.90
56861;DHT22;42744;51.094;3.490;2024-01-15T07:38:53;1.20;99.90
56861;DHT22;42744;51.094;3.490;2024-01-15T07:41:20;1.30;99.90
56861;DHT22;42744;51.094;3.490;2024-01-15T07:43:46;1.30;99.90
56861;DHT22;42744;51.094;3.490;2024-01-15T07:46:12;1.40;99.90
56861;DHT22;42744;51.094;3.490;2024-01-15T07:48:39;1.40;99.90
56861;DHT22;42744;51.094;3.490;2024-01-15T07:51:05;1.40;99.90
56861;DHT22;42744;51.094;3.490;2024-01-15T07:53:31;1.40;99.90
56861;DHT22;42744;51.094;3.490;2024-01-15T07:55:58;1.40;99.90
56861;DHT22;42744;51.094;3.490;2024-01-15T07:58:24;1.40;99.90
56861;DHT22;42744;51.094;3.490;2024-01-15T08:00:51;1.50;99.90
56861;DHT22;42744;51.094;3.490;2024-01-15T08:03:18;1.50;99.90
56861;DHT22;42744;51.094;3.490;2024-01-15T08:05:44;1.50;99.90
56861;DHT22;42744;51.094;3.490;2024-01-15T08:08:10;1.50;99.90
56861;DHT22;42744;51.094;3.490;2024-01-15T08:10:37;1.50;99.90
56861;DHT22;42744;51.094;3.490;2024-01-15T08:13:04;1.50;99.90
56861;DHT22;42744;51.094;3.490;2024-01-15T08:15:30;1.50;99.90
56861;DHT22;42744;51.094;3.490;2024-01-15T08:17:56;1.50;99.90
56861;DHT22;42744;51.094;3.490;2024-01-15T08:20:23;1.50;99.90
56861;DHT22;42744;51.094;3.490;2024-01-15T08:22:49;1.50;99.90
56861;DHT22;42744;51.094;3.490;2024-01-15T08:25:16;1.50;99.90
56861;DHT22;42744;51.094;3.490;2024-01-15T08:27:42;1.50;99.90
56861;DHT22;42744;51.094;3.490;2024-01-15T08:30:09;1.60;99.90
56861;DHT22;42744;51.094;3.490;2024-01-15T08:32:36;1.60;99.90
56861;DHT22;42744;51.094;3.490;2024-01-15T08:35:06;1.70;99.90
56861;DHT22;42744;51.094;3.490;2024-01-15T08:37:33;1.80;99.90
56861;DHT22;42744;51.094;3.490;2024-01-15T08:40:02;1.90;99.90
56861;DHT22;42744;51.094;3.490;2024-01-15T08:42:29;1.90;99.90
56861;DHT22;42744;51.094;3.490;2024-01-15T08:44:55;1.90;99.90
56861;DHT22;42744;51.094;3.490;2024-01-15T08:47:22;1.90;99.90
56861;DHT22;42744;51.094;3.490;2024-01-15T08:49:48;1.90;99.90
56861;DHT22;42744;51.094;3.490;2024-01-15T08:52:14;1.90;99.90
56861;DHT22;42744;51.094;3.490;2024-01-15T08:54:42;1.90;99.90
56861;DHT22;42744;51.094;3.490;2024-01-15T08:57:08;2.10;99.90
56861;DHT22;42744;51.094;3.490;2024-01-15T08:59:34;2.30;99.90
56861;DHT22;42744;51.094;3.490;2024-01-15T09:02:01;2.50;99.90
56861;DHT22;42744;51.094;3.490;2024-01-15T09:04:27;2.60;99.90
56861;DHT22;42744;51.094;3.490;2024-01-15T09:06:53;2.80;99.90
56861;DHT22;42744;51.094;3.490;2024-01-15T09:09:20;2.70;99.90
56861;DHT22;42744;51.094;3.490;2024-01-15T09:11:46;2.60;99.90
56861;DHT22;42744;51.094;3.490;2024-01-15T09:14:12;2.60;99.90
56861;DHT22;42744;51.094;3.490;2024-01-15T09:16:39;2.70;99.90
56861;DHT22;42744;51.094;3.490;2024-01-15T09:19:05;2.80;99.90
56861;DHT22;42744;51.094;3.490;2024-01-15T09:21:32;2.90;99.90
56861;DHT22;42744;51.094;3.490;2024-01-15T09:23:58;2.90;99.90
56861;DHT22;42744;51.094;3.490;2024-01-15T09:26:25;2.90;99.90
56861;DHT22;42744;51.094;3.490;2024-01-15T09:28:51;3.10;99.90
56861;DHT22;42744;51.094;3.490;2024-01-15T09:31:18;3.20;99.90
56861;DHT22;42744;51.094;3.490;2024-01-15T09:33:46;3.10;99.90
56861;DHT22;42744;51.094;3.490;2024-01-15T09:36:12;3.00;99.90
56861;DHT22;42744;51.094;3.490;2024-01-15T09:38:40;2.90;99.90
56861;DHT22;42744;51.094;3.490;2024-01-15T09:41:07;3.10;99.90
56861;DHT22;42744;51.094;3.490;2024-01-15T09:43:34;3.30;99.90
56861;DHT22;42744;51.094;3.490;2024-01-15T09:46:01;3.30;99.90
56861;DHT22;42744;51.094;3.490;2024-01-15T09:48:27;3.40;99.90
56861;DHT22;42744;51.094;3.490;2024-01-15T09:50:55;3.50;99.90
56861;DHT22;42744;51.094;3.490;2024-01-15T09:53:25;3.70;99.90
56861;DHT22;42744;51.094;3.490;2024-01-15T09:55:53;3.80;99.90
56861;DHT22;42744;51.094;3.490;2024-01-15T09:58:19;3.90;99.90
56861;DHT22;42744;51.094;3.490;2024-01-15T10:00:48;4.10;99.90
56861;DHT22;42744;51.094;3.490;2024-01-15T10:03:16;4.10;99.90
56861;DHT22;42744;51.094;3.490;2024-01-15T10:05:43;4.20;99.90
56861;DHT22;42744;51.094;3.490;2024-01-15T10:08:10;4.50;99.90
56861;DHT22;42744;51.094;3.490;2024-01-15T10:10:37;4.80;99.90
56861;DHT22;42744;51.094;3.490;2024-01-15T10:13:04;4.90;99.90
56861;DHT22;42744;51.094;3.490;2024-01-15T10:15:34;4.70;99.90
56861;DHT22;42744;51.094;3.490;2024-01-15T10:18:03;4.40;99.90
56861;DHT22;42744;51.094;3.490;2024-01-15T10:20:32;4.20;99.90
56861;DHT22;42744;51.094;3.490;2024-01-15T10:22:58;4.10;99.90
56861;DHT22;42744;51.094;3.490;2024-01-15T10:25:25;4.00;99.90
56861;DHT22;42744;51.094;3.490;2024-01-15T10:28:02;3.90;99.90
56861;DHT22;42744;51.094;3.490;2024-01-15T10:30:29;3.80;99.90
56861;DHT22;42744;51.094;3.490;2024-01-15T10:33:02;3.80;99.90
56861;DHT22;42744;51.094;3.490;2024-01-15T10:35:31;3.80;99.90
56861;DHT22;42744;51.094;3.490;2024-01-15T10:38:00;3.90;99.90
56861;DHT22;42744;51.094;3.490;2024-01-15T10:40:27;4.00;99.90
56861;DHT22;42744;51.094;3.490;2024-01-15T10:42:54;3.90;99.90
56861;DHT22;42744;51.094;3.490;2024-01-15T10:45:20;4.20;99.90
56861;DHT22;42744;51.094;3.490;2024-01-15T10:47:47;4.30;99.90
56861;DHT22;42744;51.094;3.490;2024-01-15T10:50:15;4.50;99.90
56861;DHT22;42744;51.094;3.490;2024-01-15T10:52:42;4.80;99.90
56861;DHT22;42744;51.094;3.490;2024-01-15T10:55:09;4.90;99.90
56861;DHT22;42744;51.094;3.490;2024-01-15T10:57:39;4.70;99.90
56861;DHT22;42744;51.094;3.490;2024-01-15T11:00:06;4.70;99.90
56861;DHT22;42744;51.094;3.490;2024-01-15T11:02:35;4.90;99.90
56861;DHT22;42744;51.094;3.490;2024-01-15T11:05:02;4.90;99.90
56861;DHT22;42744;51.094;3.490;2024-01-15T11:07:30;4.90;99.90
56861;DHT22;42744;51.094;3.490;2024-01-15T11:09:57;5.10;99.90
56861;DHT22;42744;51.094;3.490;2024-01-15T11:12:26;5.30;99.90
56861;DHT22;42744;51.094;3.490;2024-01-15T11:15:02;5.20;99.90
56861;DHT22;42744;51.094;3.490;2024-01-15T11:17:59;5.10;99.90
56861;DHT22;42744;51.094;3.490;2024-01-15T11:20:27;5.30;99.90
56861;DHT22;42744;51.094;3.490;2024-01-15T11:22:53;5.30;99.90
56861;DHT22;42744;51.094;3.490;2024-01-15T11:25:22;5.20;99.90
56861;DHT22;42744;51.094;3.490;2024-01-15T11:27:50;5.10;99.90
56861;DHT22;42744;51.094;3.490;2024-01-15T11:30:18;5.00;99.90
56861;DHT22;42744;51.094;3.490;2024-01-15T11:32:46;5.10;99.90
56861;DHT22;42744;51.094;3.490;2024-01-15T11:35:13;5.10;99.90
56861;DHT22;42744;51.094;3.490;2024-01-15T11:40:39;4.80;99.90
56861;DHT22;42744;51.094;3.490;2024-01-15T11:43:06;4.90;99.90
56861;DHT22;42744;51.094;3.490;2024-01-15T11:45:33;4.90;99.90
56861;DHT22;42744;51.094;3.490;2024-01-15T11:48:14;4.80;99.90
56861;DHT22;42744;51.094;3.490;2024-01-15T11:50:49;4.70;99.90
56861;DHT22;42744;51.094;3.490;2024-01-15T11:53:37;4.60;99.90
56861;DHT22;42744;51.094;3.490;2024-01-15T11:56:14;4.50;99.90
56861;DHT22;42744;51.094;3.490;2024-01-15T11:58:43;4.50;99.90
56861;DHT22;42744;51.094;3.490;2024-01-15T12:01:11;4.40;99.90
56861;DHT22;42744;51.094;3.490;2024-01-15T12:03:37;4.30;99.90
56861;DHT22;42744;51.094;3.490;2024-01-15T12:06:07;4.40;99.90
56861;DHT22;42744;51.094;3.490;2024-01-15T12:08:33;4.40;99.90
56861;DHT22;42744;51.094;3.490;2024-01-15T12:11:00;4.30;99.90
56861;DHT22;42744;51.094;3.490;2024-01-15T12:13:27;4.20;99.90
56861;DHT22;42744;51.094;3.490;2024-01-15T12:15:54;4.20;99.90
56861;DHT22;42744;51.094;3.490;2024-01-15T12:18:21;4.10;99.90
56861;DHT22;42744;51.094;3.490;2024-01-15T12:20:47;4.10;99.90
56861;DHT22;42744;51.094;3.490;2024-01-15T12:23:13;4.20;99.90
56861;DHT22;42744;51.094;3.490;2024-01-15T12:25:40;4.30;99.90
56861;DHT22;42744;51.094;3.490;2024-01-15T12:28:07;4.50;99.90
56861;DHT22;42744;51.094;3.490;2024-01-15T12:30:34;4.70;99.90
56861;DHT22;42744;51.094;3.490;2024-01-15T12:33:04;4.90;99.90
56861;DHT22;42744;51.094;3.490;2024-01-15T12:35:31;4.80;99.90
56861;DHT22;42744;51.094;3.490;2024-01-15T12:37:59;4.90;99.90
56861;DHT22;42744;51.094;3.490;2024-01-15T12:40:26;5.00;99.90
56861;DHT22;42744;51.094;3.490;2024-01-15T12:42:52;5.20;99.90
56861;DHT22;42744;51.094;3.490;2024-01-15T12:45:19;5.50;99.90
56861;DHT22;42744;51.094;3.490;2024-01-15T12:47:46;5.80;99.90
56861;DHT22;42744;51.094;3.490;2024-01-15T12:50:13;5.90;99.90
56861;DHT22;42744;51.094;3.490;2024-01-15T12:52:42;6.10;99.90
56861;DHT22;42744;51.094;3.490;2024-01-15T12:55:10;6.00;99.90
56861;DHT22;42744;51.094;3.490;2024-01-15T12:57:37;6.00;99.90
56861;DHT22;42744;51.094;3.490;2024-01-15T13:00:04;5.80;99.90
56861;DHT22;42744;51.094;3.490;2024-01-15T13:02:39;5.60;99.90
56861;DHT22;42744;51.094;3.490;2024-01-15T13:05:08;5.40;99.90
56861;DHT22;42744;51.094;3.490;2024-01-15T13:07:34;5.20;99.90
56861;DHT22;42744;51.094;3.490;2024-01-15T13:10:01;5.00;99.90
56861;DHT22;42744;51.094;3.490;2024-01-15T13:12:27;4.90;99.90
56861;DHT22;42744;51.094;3.490;2024-01-15T13:14:53;4.70;99.90
56861;DHT22;42744;51.094;3.490;2024-01-15T13:17:20;4.60;99.90
56861;DHT22;42744;51.094;3.490;2024-01-15T13:19:47;4.70;99.90
56861;DHT22;42744;51.094;3.490;2024-01-15T13:22:14;4.70;99.90
56861;DHT22;42744;51.094;3.490;2024-01-15T13:24:41;4.70;99.90
56861;DHT22;42744;51.094;3.490;2024-01-15T13:27:08;4.70;99.90
56861;DHT22;42744;51.094;3.490;2024-01-15T13:29:34;4.70;99.90
56861;DHT22;42744;51.094;3.490;2024-01-15T13:32:01;4.60;99.90
56861;DHT22;42744;51.094;3.490;2024-01-15T13:34:28;4.50;99.90
56861;DHT22;42744;51.094;3.490;2024-01-15T13:36:55;4.40;99.90
56861;DHT22;42744;51.094;3.490;2024-01-15T13:39:22;4.40;99.90
56861;DHT22;42744;51.094;3.490;2024-01-15T13:41:49;4.40;99.90
56861;DHT22;42744;51.094;3.490;2024-01-15T13:44:15;4.30;99.90
56861;DHT22;42744;51.094;3.490;2024-01-15T13:46:42;4.30;99.90
56861;DHT22;42744;51.094;3.490;2024-01-15T13:49:08;4.20;99.90
56861;DHT22;42744;51.094;3.490;2024-01-15T13:51:37;4.30;99.90
56861;DHT22;42744;51.094;3.490;2024-01-15T13:54:04;4.30;99.90
56861;DHT22;42744;51.094;3.490;2024-01-15T13:56:30;4.20;99.90
56861;DHT22;42744;51.094;3.490;2024-01-15T13:59:01;4.10;99.90
56861;DHT22;42744;51.094;3.490;2024-01-15T14:01:28;4.00;99.90
56861;DHT22;42744;51.094;3.490;2024-01-15T14:03:54;4.10;99.90
56861;DHT22;42744;51.094;3.490;2024-01-15T14:06:20;4.30;99.90
56861;DHT22;42744;51.094;3.490;2024-01-15T14:08:47;4.40;99.90
56861;DHT22;42744;51.094;3.490;2024-01-15T14:11:13;4.50;99.90
56861;DHT22;42744;51.094;3.490;2024-01-15T14:13:39;4.50;99.90
56861;DHT22;42744;51.094;3.490;2024-01-15T14:16:06;4.50;99.90
56861;DHT22;42744;51.094;3.490;2024-01-15T14:18:32;4.40;99.90
56861;DHT22;42744;51.094;3.490;2024-01-15T14:20:59;4.30;99.90
56861;DHT22;42744;51.094;3.490;2024-01-15T14:23:25;4.30;99.90
56861;DHT22;42744;51.094;3.490;2024-01-15T14:25:52;4.30;99.90
56861;DHT22;42744;51.094;3.490;2024-01-15T14:28:18;4.30;99.90
56861;DHT22;42744;51.094;3.490;2024-01-15T14:30:44;4.30;99.90
56861;DHT22;42744;51.094;3.490;2024-01-15T14:33:11;4.20;99.90
56861;DHT22;42744;51.094;3.490;2024-01-15T14:35:37;4.20;99.90
56861;DHT22;42744;51.094;3.490;2024-01-15T14:38:03;4.20;99.90
56861;DHT22;42744;51.094;3.490;2024-01-15T14:40:30;4.30;99.90
56861;DHT22;42744;51.094;3.490;2024-01-15T14:42:56;4.30;99.90
56861;DHT22;42744;51.094;3.490;2024-01-15T14:45:23;4.30;99.90
56861;DHT22;42744;51.094;3.490;2024-01-15T14:47:49;4.30;99.90
56861;DHT22;42744;51.094;3.490;2024-01-15T14:50:15;4.20;99.90
56861;DHT22;42744;51.094;3.490;2024-01-15T14:52:42;4.20;99.90
56861;DHT22;42744;51.094;3.490;2024-01-15T14:55:08;4.10;99.90
56861;DHT22;42744;51.094;3.490;2024-01-15T14:57:35;4.10;99.90
56861;DHT22;42744;51.094;3.490;2024-01-15T15:00:04;4.00;99.90
56861;DHT22;42744;51.094;3.490;2024-01-15T15:02:34;4.00;99.90
56861;DHT22;42744;51.094;3.490;2024-01-15T15:05:02;4.00;99.90
56861;DHT22;42744;51.094;3.490;2024-01-15T15:07:28;3.90;99.90
56861;DHT22;42744;51.094;3.490;2024-01-15T15:09:55;3.90;99.90
56861;DHT22;42744;51.094;3.490;2024-01-15T15:12:21;3.90;99.90
56861;DHT22;42744;51.094;3.490;2024-01-15T15:14:47;3.80;99.90
56861;DHT22;42744;51.094;3.490;2024-01-15T15:17:14;3.80;99.90
56861;DHT22;42744;51.094;3.490;2024-01-15T15:19:40;3.80;99.90
56861;DHT22;42744;51.094;3.490;2024-01-15T15:22:07;3.70;99.90
56861;DHT22;42744;51.094;3.490;2024-01-15T15:24:37;3.70;99.90
56861;DHT22;42744;51.094;3.490;2024-01-15T15:27:05;3.60;99.90
56861;DHT22;42744;51.094;3.490;2024-01-15T15:29:32;3.60;99.90
56861;DHT22;42744;51.094;3.490;2024-01-15T15:32:01;3.60;99.90
56861;DHT22;42744;51.094;3.490;2024-01-15T15:34:28;3.50;99.90
56861;DHT22;42744;51.094;3.490;2024-01-15T15:36:55;3.50;99.90
56861;DHT22;42744;51.094;3.490;2024-01-15T15:39:21;3.40;99.90
56861;DHT22;42744;51.094;3.490;2024-01-15T15:41:48;3.30;99.90
56861;DHT22;42744;51.094;3.490;2024-01-15T15:44:15;3.20;99.90
56861;DHT22;42744;51.094;3.490;2024-01-15T15:46:43;3.20;99.90